Time;durP1;ratioP1;P1;durP2;ratioP2;P2;SDS_P1;SDS_P2;PMS_P1;PMS_P2;Temp;Humidity;BMP_temperature;BMP_pressure;BME280_temperature;BME280_humidity;BME280_pressure;Samples;Min_cycle;Max_cycle;Signal;HPM_P1;HPM_P2
2023/03/18 00:01:12;;;;;;;9.20;2.53;;;;;;;;;;5018063;28;20051;-74
2023/03/18 00:03:38;;;;;;;5.10;2.22;;;;;;;;;;5034110;28;20029;-74
2023/03/18 00:06:07;;;;;;;4.82;2.05;;;;;;;;;;5034507;28;20394;-73
2023/03/18 00:08:33;;;;;;;7.07;2.47;;;;;;;;;;5039465;28;20079;-73
2023/03/18 00:10:59;;;;;;;5.03;2.50;;;;;;;;;;5034177;28;20092;-74
2023/03/18 00:13:25;;;;;;;4.78;2.35;;;;;;;;;;5051929;28;20510;-74
2023/03/18 00:15:50;;;;;;;9.77;3.45;;;;;;;;;;5051607;28;20076;-73
2023/03/18 00:18:16;;;;;;;5.90;2.40;;;;;;;;;;5052281;28;20029;-73
2023/03/18 00:20:41;;;;;;;4.40;2.53;;;;;;;;;;5051596;28;20515;-73
2023/03/18 00:23:07;;;;;;;6.03;2.60;;;;;;;;;;5048714;28;20459;-73
2023/03/18 00:25:33;;;;;;;5.97;2.30;;;;;;;;;;5034108;28;20033;-73
2023/03/18 00:27:59;;;;;;;5.55;2.55;;;;;;;;;;5033947;28;20028;-73
2023/03/18 00:30:24;;;;;;;5.82;2.25;;;;;;;;;;5034251;28;20079;-73
2023/03/18 00:32:50;;;;;;;5.90;2.40;;;;;;;;;;5051112;28;20031;-73
2023/03/18 00:35:16;;;;;;;7.43;2.47;;;;;;;;;;5033856;28;20082;-73
2023/03/18 00:37:42;;;;;;;;;;;;;;;;;;5034157;28;20068;-73
2023/03/18 00:40:09;;;;;;;4.05;2.08;;;;;;;;;;5051606;28;20010;-73
2023/03/18 00:42:46;;;;;;;7.10;2.35;;;;;;;;;;5051496;28;20020;-73
2023/03/18 00:45:12;;;;;;;4.53;1.90;;;;;;;;;;5017196;28;20488;-73
2023/03/18 00:47:37;;;;;;;;;;;;;;;;;;5051988;28;20047;-72
2023/03/18 00:50:03;;;;;;;5.10;2.17;;;;;;;;;;5033403;28;19913;-72
2023/03/18 00:52:29;;;;;;;6.65;2.60;;;;;;;;;;5017090;28;20075;-76
2023/03/18 00:54:55;;;;;;;5.07;2.30;;;;;;;;;;5033568;28;20056;-73
2023/03/18 00:57:21;;;;;;;4.35;2.13;;;;;;;;;;5044403;28;20053;-75
2023/03/18 00:59:47;;;;;;;;;;;;;;;;;;5033725;28;20049;-74
2023/03/18 01:02:12;;;;;;;5.75;2.45;;;;;;;;;;5033793;28;20367;-75
2023/03/18 01:04:38;;;;;;;4.72;2.35;;;;;;;;;;5015402;28;20033;-75
2023/03/18 01:07:04;;;;;;;5.30;2.45;;;;;;;;;;5050967;28;20029;-73
2023/03/18 01:09:31;;;;;;;6.13;2.50;;;;;;;;;;5033600;28;20033;-73
2023/03/18 01:11:57;;;;;;;4.60;2.17;;;;;;;;;;5016941;28;20028;-73
2023/03/18 01:14:22;;;;;;;5.20;2.30;;;;;;;;;;5051080;28;20044;-73
2023/03/18 01:16:48;;;;;;;5.80;2.72;;;;;;;;;;5051024;28;20110;-72
2023/03/18 01:19:14;;;;;;;6.45;2.50;;;;;;;;;;5033438;28;20488;-74
2023/03/18 01:21:40;;;;;;;5.85;2.30;;;;;;;;;;5030746;28;20044;-74
2023/03/18 01:24:06;;;;;;;5.13;2.22;;;;;;;;;;5032709;28;20036;-74
2023/03/18 01:26:33;;;;;;;7.05;2.30;;;;;;;;;;5033487;28;20033;-74
2023/03/18 01:28:59;;;;;;;7.05;2.35;;;;;;;;;;5016938;28;20060;-74
2023/03/18 01:31:26;;;;;;;5.32;2.47;;;;;;;;;;5033905;28;20029;-74
2023/03/18 01:33:56;;;;;;;8.20;2.10;;;;;;;;;;5033523;28;20033;-74
2023/03/18 01:36:22;;;;;;;5.80;2.67;;;;;;;;;;5050631;28;20047;-74
2023/03/18 01:38:59;;;;;;;5.93;2.38;;;;;;;;;;5035072;28;20373;-73
2023/03/18 01:41:25;;;;;;;4.53;2.40;;;;;;;;;;5033699;28;20091;-73
2023/03/18 01:43:50;;;;;;;3.90;2.22;;;;;;;;;;5030391;28;20499;-74
2023/03/18 01:46:35;;;;;;;7.65;3.03;;;;;;;;;;5037591;28;20373;-73
2023/03/18 01:49:16;;;;;;;6.38;2.38;;;;;;;;;;5037730;28;20035;-73
2023/03/18 01:51:42;;;;;;;5.40;2.67;;;;;;;;;;5037518;28;20035;-73
2023/03/18 01:54:08;;;;;;;;;;;;;;;;;;5054996;28;20103;-73
2023/03/18 01:56:35;;;;;;;5.97;2.80;;;;;;;;;;5037607;28;20420;-73
2023/03/18 01:59:01;;;;;;;9.23;2.53;;;;;;;;;;5020259;28;20059;-74
2023/03/18 02:01:29;;;;;;;7.32;2.50;;;;;;;;;;5020143;28;20032;-73
2023/03/18 02:03:59;;;;;;;5.18;2.25;;;;;;;;;;5036918;28;20033;-73
2023/03/18 02:06:24;;;;;;;7.38;2.83;;;;;;;;;;5036912;28;20037;-73
2023/03/18 02:08:59;;;;;;;6.00;2.15;;;;;;;;;;5037861;28;20032;-73
2023/03/18 02:11:25;;;;;;;5.55;2.60;;;;;;;;;;5003634;28;20123;-73
2023/03/18 02:13:54;;;;;;;10.25;3.60;;;;;;;;;;5017162;28;20515;-73
2023/03/18 02:16:22;;;;;;;5.70;2.72;;;;;;;;;;5035386;28;20044;-73
2023/03/18 02:18:58;;;;;;;4.78;2.40;;;;;;;;;;5020326;28;20036;-73
2023/03/18 02:21:42;;;;;;;8.07;2.67;;;;;;;;;;5001490;28;20128;-73
2023/03/18 02:24:08;;;;;;;6.63;2.42;;;;;;;;;;5035767;28;20352;-73
2023/03/18 02:26:37;;;;;;;6.20;2.80;;;;;;;;;;5053820;28;20112;-72
2023/03/18 02:29:04;;;;;;;3.95;2.38;;;;;;;;;;5035791;28;20047;-74
2023/03/18 02:31:37;;;;;;;5.28;2.83;;;;;;;;;;5036335;28;20017;-72
2023/03/18 02:34:04;;;;;;;8.75;2.50;;;;;;;;;;5036117;28;20033;-74
2023/03/18 02:36:30;;;;;;;6.20;2.33;;;;;;;;;;5036083;28;20035;-74
2023/03/18 02:38:59;;;;;;;5.68;2.53;;;;;;;;;;5035922;28;20037;-75
2023/03/18 02:41:28;;;;;;;4.80;2.20;;;;;;;;;;5035929;28;20765;-75
2023/03/18 02:43:55;;;;;;;7.63;2.72;;;;;;;;;;5035948;28;20055;-74
2023/03/18 02:46:24;;;;;;;5.70;2.58;;;;;;;;;;5035534;28;20055;-73
2023/03/18 02:48:50;;;;;;;5.28;2.63;;;;;;;;;;5019118;28;20087;-73
2023/03/18 02:51:16;;;;;;;7.32;2.70;;;;;;;;;;5018896;28;20025;-73
2023/03/18 02:53:42;;;;;;;4.82;2.60;;;;;;;;;;5019415;28;20036;-73
2023/03/18 02:56:08;;;;;;;6.43;2.78;;;;;;;;;;5044977;28;20048;-75
2023/03/18 02:58:34;;;;;;;6.60;2.60;;;;;;;;;;5054979;28;20036;-74
2023/03/18 03:01:00;;;;;;;6.68;2.80;;;;;;;;;;5022536;28;20040;-73
2023/03/18 03:03:26;;;;;;;7.85;2.55;;;;;;;;;;5038424;28;20464;-73
2023/03/18 03:05:52;;;;;;;8.35;2.80;;;;;;;;;;5054687;28;20040;-73
2023/03/18 03:08:19;;;;;;;5.78;2.50;;;;;;;;;;5054512;28;20127;-73
2023/03/18 03:10:46;;;;;;;5.13;2.50;;;;;;;;;;5054742;28;20074;-73
2023/03/18 03:13:12;;;;;;;7.47;2.97;;;;;;;;;;5038219;28;20047;-74
2023/03/18 03:15:38;;;;;;;6.03;2.97;;;;;;;;;;5055255;28;20029;-73
2023/03/18 03:18:04;;;;;;;6.40;2.78;;;;;;;;;;5037809;28;20047;-73
2023/03/18 03:20:32;;;;;;;5.85;3.05;;;;;;;;;;5038270;28;20031;-73
2023/03/18 03:22:58;;;;;;;5.60;2.83;;;;;;;;;;5024166;28;20380;-73
2023/03/18 03:25:25;;;;;;;5.60;2.53;;;;;;;;;;5054651;28;20033;-73
2023/03/18 03:27:51;;;;;;;6.80;2.70;;;;;;;;;;5071987;28;20107;-73
2023/03/18 03:30:17;;;;;;;4.78;2.50;;;;;;;;;;5054500;28;20112;-73
2023/03/18 03:32:42;;;;;;;5.35;2.45;;;;;;;;;;5037326;28;20139;-75
2023/03/18 03:35:11;;;;;;;5.50;2.67;;;;;;;;;;5037926;28;20059;-75
2023/03/18 03:37:36;;;;;;;10.98;2.80;;;;;;;;;;5053660;28;20032;-74
2023/03/18 03:40:02;;;;;;;5.43;2.70;;;;;;;;;;5072089;28;20040;-73
2023/03/18 03:42:27;;;;;;;6.03;2.80;;;;;;;;;;5053405;28;20047;-74
2023/03/18 03:44:52;;;;;;;9.82;2.92;;;;;;;;;;5053976;28;20033;-73
2023/03/18 03:47:18;;;;;;;6.05;2.53;;;;;;;;;;5054445;28;20036;-74
2023/03/18 03:49:43;;;;;;;7.95;3.08;;;;;;;;;;5054653;28;20021;-75
2023/03/18 03:52:09;;;;;;;;;;;;;;;;;;5036157;28;20033;-74
2023/03/18 03:54:37;;;;;;;8.20;2.50;;;;;;;;;;5034550;28;20299;-73
2023/03/18 03:57:03;;;;;;;6.90;2.70;;;;;;;;;;5034180;28;20053;-73
2023/03/18 03:59:28;;;;;;;6.88;2.88;;;;;;;;;;5052799;28;20131;-73
2023/03/18 04:02:12;;;;;;;8.60;3.08;;;;;;;;;;5034531;28;20421;-74
2023/03/18 04:04:38;;;;;;;6.10;2.70;;;;;;;;;;5034110;28;20044;-73
2023/03/18 04:07:06;;;;;;;9.15;2.95;;;;;;;;;;5017514;28;20017;-76
2023/03/18 04:09:33;;;;;;;6.15;2.65;;;;;;;;;;5034370;28;20399;-74
2023/03/18 04:11:59;;;;;;;6.70;2.97;;;;;;;;;;5034216;28;20063;-76
2023/03/18 04:14:28;;;;;;;6.63;2.72;;;;;;;;;;5018013;28;20132;-75
2023/03/18 04:16:56;;;;;;;7.13;2.85;;;;;;;;;;5017615;28;20112;-74
2023/03/18 04:19:23;;;;;;;7.88;3.03;;;;;;;;;;5034238;28;20392;-74
2023/03/18 04:21:48;;;;;;;9.25;3.10;;;;;;;;;;5017644;28;20107;-74
2023/03/18 04:24:14;;;;;;;;;;;;;;;;;;5033787;28;20044;-74
2023/03/18 04:26:40;;;;;;;7.80;2.90;;;;;;;;;;5033554;28;19909;-74
2023/03/18 04:29:05;;;;;;;7.38;3.15;;;;;;;;;;5033238;28;20040;-74
2023/03/18 04:31:31;;;;;;;9.13;3.15;;;;;;;;;;5017390;28;20035;-75
2023/03/18 04:33:59;;;;;;;7.13;3.03;;;;;;;;;;5001027;28;20036;-75
2023/03/18 04:36:25;;;;;;;9.23;3.35;;;;;;;;;;5017252;28;20131;-75
2023/03/18 04:38:51;;;;;;;9.55;3.00;;;;;;;;;;5016522;28;20038;-76
2023/03/18 04:41:17;;;;;;;7.82;3.53;;;;;;;;;;5017078;28;20033;-74
2023/03/18 04:43:43;;;;;;;6.95;3.17;;;;;;;;;;5033105;28;20036;-75
2023/03/18 04:46:10;;;;;;;11.93;3.35;;;;;;;;;;5033292;28;20236;-74
2023/03/18 04:48:37;;;;;;;6.05;3.40;;;;;;;;;;5016983;28;20396;-74
2023/03/18 04:51:07;;;;;;;9.68;3.03;;;;;;;;;;5017141;28;20396;-74
2023/03/18 04:53:33;;;;;;;8.75;3.42;;;;;;;;;;5033054;28;20048;-76
2023/03/18 04:55:59;;;;;;;9.32;4.15;;;;;;;;;;5017007;28;20061;-76
2023/03/18 04:58:33;;;;;;;7.55;3.60;;;;;;;;;;5033219;28;20131;-75
2023/03/18 05:01:08;;;;;;;7.93;3.30;;;;;;;;;;5015151;28;20559;-75
2023/03/18 05:03:36;;;;;;;12.23;3.97;;;;;;;;;;5016393;28;20499;-74
2023/03/18 05:06:02;;;;;;;9.00;3.72;;;;;;;;;;5032988;28;20029;-74
2023/03/18 05:08:38;;;;;;;10.10;3.17;;;;;;;;;;5033096;28;20091;-75
2023/03/18 05:11:05;;;;;;;9.57;3.28;;;;;;;;;;5013726;28;20036;-75
2023/03/18 05:13:33;;;;;;;6.78;3.17;;;;;;;;;;5016746;28;20023;-75
2023/03/18 05:15:59;;;;;;;11.57;3.13;;;;;;;;;;5032057;28;20033;-75
2023/03/18 05:18:25;;;;;;;6.60;3.20;;;;;;;;;;5020482;28;20059;-75
2023/03/18 05:20:52;;;;;;;12.05;3.30;;;;;;;;;;5031670;28;20048;-76
2023/03/18 05:23:18;;;;;;;8.52;3.67;;;;;;;;;;5031023;28;20037;-75
2023/03/18 05:25:49;;;;;;;11.90;3.40;;;;;;;;;;5032528;28;20068;-75
2023/03/18 05:28:17;;;;;;;8.63;3.97;;;;;;;;;;5032652;28;20049;-75
2023/03/18 05:30:51;;;;;;;5.40;2.88;;;;;;;;;;5032909;28;20031;-74
2023/03/18 05:33:41;;;;;;;10.98;2.83;;;;;;;;;;5037025;28;20079;-74
2023/03/18 05:36:08;;;;;;;;;;;;;;;;;;5032494;28;20025;-74
2023/03/18 05:38:39;;;;;;;5.18;2.90;;;;;;;;;;5032447;28;20284;-75
2023/03/18 05:41:05;;;;;;;6.90;3.13;;;;;;;;;;5016254;28;20033;-75
2023/03/18 05:43:35;;;;;;;13.30;3.40;;;;;;;;;;5032459;28;20032;-75
2023/03/18 05:46:01;;;;;;;6.13;2.72;;;;;;;;;;5016381;28;20117;-75
2023/03/18 05:48:47;;;;;;;6.35;2.70;;;;;;;;;;5031855;28;20074;-75
2023/03/18 05:51:13;;;;;;;9.45;3.08;;;;;;;;;;5038995;28;20033;-75
2023/03/18 05:53:39;;;;;;;7.88;3.33;;;;;;;;;;5050354;28;20036;-73
2023/03/18 05:56:15;;;;;;;6.75;3.40;;;;;;;;;;5014180;28;20402;-75
2023/03/18 05:58:42;;;;;;;5.78;2.65;;;;;;;;;;5031332;28;20158;-74
2023/03/18 06:01:37;;;;;;;8.68;3.70;;;;;;;;;;5042818;28;20042;-75
2023/03/18 06:04:07;;;;;;;9.15;3.40;;;;;;;;;;5032794;28;20071;-75
2023/03/18 06:06:34;;;;;;;5.30;2.90;;;;;;;;;;5016026;28;20082;-74
2023/03/18 06:09:00;;;;;;;5.57;2.67;;;;;;;;;;5032544;28;20029;-76
2023/03/18 06:11:28;;;;;;;6.18;2.65;;;;;;;;;;5032609;28;20499;-75
2023/03/18 06:13:54;;;;;;;7.57;2.42;;;;;;;;;;5032265;28;20048;-74
2023/03/18 06:16:19;;;;;;;6.70;2.58;;;;;;;;;;5032574;28;20095;-75
2023/03/18 06:18:45;;;;;;;7.43;3.20;;;;;;;;;;5050418;28;20156;-76
2023/03/18 06:21:13;;;;;;;5.85;2.65;;;;;;;;;;5032528;28;20040;-74
2023/03/18 06:23:38;;;;;;;5.07;2.70;;;;;;;;;;5032333;28;20033;-73
2023/03/18 06:26:05;;;;;;;10.25;2.85;;;;;;;;;;5032326;28;20028;-75
2023/03/18 06:28:36;;;;;;;11.52;2.90;;;;;;;;;;5032337;28;20439;-76
2023/03/18 06:31:07;;;;;;;6.60;2.75;;;;;;;;;;5034031;28;20090;-74
2023/03/18 06:33:32;;;;;;;9.73;3.35;;;;;;;;;;5054053;28;20061;-76
2023/03/18 06:36:00;;;;;;;7.43;2.88;;;;;;;;;;5053591;28;20519;-74
2023/03/18 06:38:27;;;;;;;24.77;4.43;;;;;;;;;;5019775;28;20037;-75
2023/03/18 06:40:55;;;;;;;7.10;2.47;;;;;;;;;;5019364;28;20059;-76
2023/03/18 06:43:21;;;;;;;11.90;3.20;;;;;;;;;;5015951;28;20403;-74
2023/03/18 06:45:47;;;;;;;9.10;3.33;;;;;;;;;;5035182;28;20031;-74
2023/03/18 06:48:13;;;;;;;6.60;2.58;;;;;;;;;;5052999;28;20107;-76
2023/03/18 06:50:41;;;;;;;10.13;2.80;;;;;;;;;;5019289;28;20431;-75
2023/03/18 06:53:13;;;;;;;6.05;2.22;;;;;;;;;;5035274;28;20037;-75
2023/03/18 06:55:40;;;;;;;5.97;2.67;;;;;;;;;;5038196;28;20114;-75
2023/03/18 06:58:06;;;;;;;14.27;2.88;;;;;;;;;;5051815;28;20044;-75
2023/03/18 07:00:46;;;;;;;11.63;2.30;;;;;;;;;;5052146;28;20467;-75
2023/03/18 07:03:18;;;;;;;6.93;2.22;;;;;;;;;;5050731;28;20523;-75
2023/03/18 07:05:43;;;;;;;7.72;2.22;;;;;;;;;;5042897;28;20032;-75
2023/03/18 07:08:10;;;;;;;7.43;1.83;;;;;;;;;;5051643;28;20159;-75
2023/03/18 07:10:35;;;;;;;10.70;3.08;;;;;;;;;;5052981;28;20133;-75
2023/03/18 07:13:08;;;;;;;7.95;1.95;;;;;;;;;;5036157;28;20029;-75
2023/03/18 07:15:34;;;;;;;13.68;2.60;;;;;;;;;;5053165;28;20039;-74
2023/03/18 07:18:01;;;;;;;10.52;2.25;;;;;;;;;;5051491;28;20048;-75
2023/03/18 07:20:27;;;;;;;8.55;2.55;;;;;;;;;;5051661;28;20039;-73
2023/03/18 07:22:53;;;;;;;9.98;2.53;;;;;;;;;;5048552;28;20028;-75
2023/03/18 07:25:18;;;;;;;9.05;1.67;;;;;;;;;;5052260;28;20048;-76
2023/03/18 07:27:44;;;;;;;11.68;2.00;;;;;;;;;;5052849;28;20023;-74
2023/03/18 07:30:10;;;;;;;9.57;1.90;;;;;;;;;;5052953;28;20036;-75
2023/03/18 07:32:36;;;;;;;9.00;2.33;;;;;;;;;;5051099;28;20070;-75
2023/03/18 07:35:03;;;;;;;;;;;;;;;;;;5051736;28;20510;-75
2023/03/18 07:37:28;;;;;;;9.45;2.00;;;;;;;;;;5046659;28;19915;-72
2023/03/18 07:39:55;;;;;;;11.40;2.08;;;;;;;;;;5049876;28;20415;-73
2023/03/18 07:42:20;;;;;;;6.90;2.45;;;;;;;;;;5049769;28;20035;-75
2023/03/18 07:44:46;;;;;;;8.43;1.80;;;;;;;;;;5044363;28;20040;-74
2023/03/18 07:47:13;;;;;;;8.57;1.63;;;;;;;;;;5035132;28;20029;-74
2023/03/18 07:49:40;;;;;;;8.00;2.00;;;;;;;;;;5036373;28;20036;-75
2023/03/18 07:52:06;;;;;;;4.90;1.60;;;;;;;;;;5040858;28;20432;-75
2023/03/18 07:54:31;;;;;;;10.50;1.92;;;;;;;;;;5039639;28;20033;-74
2023/03/18 07:56:57;;;;;;;11.38;1.88;;;;;;;;;;5033520;28;20136;-73
2023/03/18 07:59:23;;;;;;;7.40;2.25;;;;;;;;;;5028334;28;20518;-74
2023/03/18 08:01:49;;;;;;;8.50;2.30;;;;;;;;;;5032600;28;20144;-73
2023/03/18 08:04:15;;;;;;;8.65;1.80;;;;;;;;;;5015437;28;20124;-74
2023/03/18 08:06:41;;;;;;;10.30;1.95;;;;;;;;;;5041586;28;20029;-74
2023/03/18 08:09:07;;;;;;;9.93;2.00;;;;;;;;;;5018252;28;20029;-74
2023/03/18 08:11:33;;;;;;;6.82;2.17;;;;;;;;;;5030915;28;20025;-74
2023/03/18 08:13:58;;;;;;;5.30;1.38;;;;;;;;;;5034053;28;20544;-74
2023/03/18 08:16:24;;;;;;;7.10;1.67;;;;;;;;;;5045290;28;20087;-74
2023/03/18 08:18:50;;;;;;;9.35;1.75;;;;;;;;;;5049400;28;20030;-74
2023/03/18 08:21:15;;;;;;;5.57;1.58;;;;;;;;;;5043081;28;20026;-77
2023/03/18 08:23:41;;;;;;;7.68;1.80;;;;;;;;;;5033379;28;20033;-77
2023/03/18 08:26:06;;;;;;;7.47;3.45;;;;;;;;;;5033533;28;20123;-77
2023/03/18 08:28:32;;;;;;;3.95;1.67;;;;;;;;;;5052070;28;20025;-77
2023/03/18 08:30:58;;;;;;;7.75;1.45;;;;;;;;;;5051322;28;20487;-77
2023/03/18 08:33:23;;;;;;;4.22;1.50;;;;;;;;;;5034189;28;20486;-78
2023/03/18 08:35:50;;;;;;;6.05;1.70;;;;;;;;;;5013990;28;20033;-78
2023/03/18 08:38:17;;;;;;;7.00;1.50;;;;;;;;;;5043001;28;20051;-77
2023/03/18 08:40:42;;;;;;;6.57;1.60;;;;;;;;;;5051358;28;20029;-77
2023/03/18 08:43:08;;;;;;;5.05;1.58;;;;;;;;;;5052033;28;20048;-77
2023/03/18 08:45:34;;;;;;;6.65;1.45;;;;;;;;;;5051248;28;20349;-77
2023/03/18 08:48:00;;;;;;;6.35;2.05;;;;;;;;;;5051527;28;20668;-77
2023/03/18 08:50:28;;;;;;;4.43;1.58;;;;;;;;;;5033409;28;20032;-78
2023/03/18 08:52:57;;;;;;;4.43;1.60;;;;;;;;;;5017529;28;20040;-78
2023/03/18 08:55:33;;;;;;;6.22;1.67;;;;;;;;;;5032811;28;20088;-78
2023/03/18 08:57:58;;;;;;;4.68;1.80;;;;;;;;;;5048643;28;20478;-77
2023/03/18 09:00:24;;;;;;;4.32;1.70;;;;;;;;;;5057555;28;20036;-78
2023/03/18 09:02:50;;;;;;;2.97;1.65;;;;;;;;;;5033681;28;20518;-78
2023/03/18 09:05:16;;;;;;;5.68;1.80;;;;;;;;;;5039024;28;20021;-77
2023/03/18 09:07:42;;;;;;;5.85;2.05;;;;;;;;;;5063565;28;20357;-78
2023/03/18 09:10:08;;;;;;;3.38;1.48;;;;;;;;;;5051806;28;20035;-76
2023/03/18 09:12:34;;;;;;;5.50;2.75;;;;;;;;;;5066531;28;20403;-78
2023/03/18 09:15:00;;;;;;;4.72;2.20;;;;;;;;;;5069757;28;20028;-78
2023/03/18 09:17:26;;;;;;;4.78;1.40;;;;;;;;;;5050577;28;20169;-78
2023/03/18 09:19:51;;;;;;;3.33;1.20;;;;;;;;;;5040658;28;20059;-78
2023/03/18 09:22:17;;;;;;;5.68;1.50;;;;;;;;;;5030481;28;20037;-79
2023/03/18 09:24:42;;;;;;;6.07;1.30;;;;;;;;;;5047018;28;20032;-79
2023/03/18 09:27:08;;;;;;;3.90;1.52;;;;;;;;;;5064009;28;20056;-76
2023/03/18 09:29:34;;;;;;;2.90;1.30;;;;;;;;;;5046297;28;20043;-77
2023/03/18 09:31:59;;;;;;;3.90;1.67;;;;;;;;;;5057586;28;20027;-75
2023/03/18 09:34:25;;;;;;;3.28;1.08;;;;;;;;;;5057407;28;20923;-76
2023/03/18 09:36:51;;;;;;;3.03;1.52;;;;;;;;;;5052961;28;20177;-77
2023/03/18 09:39:17;;;;;;;;;;;;;;;;;;5052829;28;20120;-76
2023/03/18 09:41:45;;;;;;;3.55;1.45;;;;;;;;;;5071244;28;20003;-77
2023/03/18 09:44:20;;;;;;;4.28;1.20;;;;;;;;;;5070496;28;20494;-76
2023/03/18 09:46:51;;;;;;;3.83;1.50;;;;;;;;;;5070299;28;20032;-76
2023/03/18 09:49:38;;;;;;;2.78;1.40;;;;;;;;;;5044922;28;20059;-78
2023/03/18 09:52:19;;;;;;;6.30;1.50;;;;;;;;;;5025409;28;20178;-78
2023/03/18 09:54:44;;;;;;;3.10;1.30;;;;;;;;;;5049702;28;20032;-76
2023/03/18 09:57:11;;;;;;;3.13;1.25;;;;;;;;;;5046211;28;20045;-85
2023/03/18 09:59:38;;;;;;;3.60;1.38;;;;;;;;;;5035029;28;20108;-87
2023/03/18 10:02:04;;;;;;;3.63;1.42;;;;;;;;;;5019466;28;20025;-86
2023/03/18 10:04:51;;;;;;;4.85;1.48;;;;;;;;;;5031651;28;20037;-80
2023/03/18 10:07:18;;;;;;;7.25;3.88;;;;;;;;;;5037837;28;20044;-79
2023/03/18 10:09:44;;;;;;;3.00;1.48;;;;;;;;;;5021104;28;20031;-80
2023/03/18 10:12:30;;;;;;;4.10;1.35;;;;;;;;;;5037814;28;20447;-80
2023/03/18 10:14:59;;;;;;;5.72;1.40;;;;;;;;;;5027631;28;20036;-80
2023/03/18 10:17:29;;;;;;;6.32;1.50;;;;;;;;;;5055431;28;20132;-79
2023/03/18 10:19:58;;;;;;;8.07;1.95;;;;;;;;;;5038079;28;20070;-81
2023/03/18 10:22:36;;;;;;;2.67;1.23;;;;;;;;;;5034634;28;20442;-79
2023/03/18 10:25:05;;;;;;;2.15;1.15;;;;;;;;;;5055578;28;20124;-79
2023/03/18 10:27:37;;;;;;;3.47;1.40;;;;;;;;;;5055282;28;20028;-78
2023/03/18 10:30:08;;;;;;;1.92;1.10;;;;;;;;;;5055328;28;20373;-78
2023/03/18 10:32:37;;;;;;;2.10;1.13;;;;;;;;;;5037625;28;20044;-78
2023/03/18 10:35:12;;;;;;;2.92;1.20;;;;;;;;;;5021209;28;20029;-78
2023/03/18 10:37:43;;;;;;;3.75;1.10;;;;;;;;;;5048817;28;20029;-78
2023/03/18 10:40:14;;;;;;;4.63;1.38;;;;;;;;;;5048560;28;20488;-78
2023/03/18 10:42:40;;;;;;;2.83;1.20;;;;;;;;;;5021070;28;20480;-77
2023/03/18 10:45:07;;;;;;;;;;;;;;;;;;5054796;28;20071;-78
2023/03/18 10:47:32;;;;;;;3.60;1.10;;;;;;;;;;5054243;28;19959;-78
2023/03/18 10:49:57;;;;;;;;;;;;;;;;;;5019600;28;20423;-79
2023/03/18 10:52:23;;;;;;;2.53;1.30;;;;;;;;;;5053219;28;19975;-77
2023/03/18 10:54:52;;;;;;;2.28;1.27;;;;;;;;;;5051684;28;20036;-77
2023/03/18 10:57:18;;;;;;;3.80;2.17;;;;;;;;;;5070657;28;20211;-78
2023/03/18 10:59:44;;;;;;;2.08;1.15;;;;;;;;;;5069006;28;20112;-77
2023/03/18 11:02:21;;;;;;;3.03;1.70;;;;;;;;;;5072277;28;20043;-77
2023/03/18 11:05:14;;;;;;;9.25;1.60;;;;;;;;;;5052221;28;20077;-77
2023/03/18 11:07:54;;;;;;;6.07;1.48;;;;;;;;;;5032482;28;20075;-77
2023/03/18 11:10:23;;;;;;;3.15;1.20;;;;;;;;;;5052895;28;20051;-79
2023/03/18 11:12:49;;;;;;;6.05;2.20;;;;;;;;;;5035583;28;20111;-81
2023/03/18 11:15:18;;;;;;;2.28;1.30;;;;;;;;;;5071697;28;20041;-79
2023/03/18 11:17:45;;;;;;;1.50;0.90;;;;;;;;;;5047999;28;20032;-84
2023/03/18 11:20:23;;;;;;;1.73;0.88;;;;;;;;;;5047980;28;20043;-86
2023/03/18 11:22:54;;;;;;;2.45;1.10;;;;;;;;;;5034853;28;20041;-88
2023/03/18 11:25:21;;;;;;;3.08;1.30;;;;;;;;;;5049333;28;20033;-85
2023/03/18 11:27:51;;;;;;;3.05;1.20;;;;;;;;;;5072806;28;20025;-87
2023/03/18 11:30:23;;;;;;;5.57;1.48;;;;;;;;;;5039924;28;20036;-86
2023/03/18 11:33:02;;;;;;;3.67;0.98;;;;;;;;;;5070896;28;20652;-88
2023/03/18 11:35:31;;;;;;;2.05;1.20;;;;;;;;;;5068648;28;20089;-85
2023/03/18 11:37:57;;;;;;;1.85;0.80;;;;;;;;;;5044806;28;20039;-85
2023/03/18 11:40:25;;;;;;;2.67;1.02;;;;;;;;;;5049600;28;20408;-85
2023/03/18 11:42:57;;;;;;;2.08;1.00;;;;;;;;;;5019752;28;20116;-86
2023/03/18 11:45:49;;;;;;;1.48;0.88;;;;;;;;;;5023362;28;20502;-85
2023/03/18 11:48:21;;;;;;;1.90;0.80;;;;;;;;;;5034869;28;20552;-88
2023/03/18 11:51:06;;;;;;;2.70;1.00;;;;;;;;;;5051279;28;20053;-85
2023/03/18 11:53:32;;;;;;;2.22;1.00;;;;;;;;;;5054018;28;20143;-85
2023/03/18 11:56:04;;;;;;;1.60;0.90;;;;;;;;;;5021696;28;20081;-84
2023/03/18 11:58:30;;;;;;;2.30;1.10;;;;;;;;;;5024522;28;20039;-87
2023/03/18 12:01:11;;;;;;;2.90;0.98;;;;;;;;;;5030735;28;20045;-87
2023/03/18 12:03:55;;;;;;;2.08;1.10;;;;;;;;;;5054491;28;20025;-86
2023/03/18 12:06:27;;;;;;;1.73;0.80;;;;;;;;;;5054889;28;20427;-86
2023/03/18 12:08:56;;;;;;;3.03;1.00;;;;;;;;;;5028412;28;20044;-86
2023/03/18 12:11:29;;;;;;;2.50;1.10;;;;;;;;;;5051719;28;20040;-85
2023/03/18 12:13:55;;;;;;;1.75;0.95;;;;;;;;;;5038801;28;20120;-86
2023/03/18 12:16:35;;;;;;;4.85;1.10;;;;;;;;;;5044086;28;20028;-85
2023/03/18 12:19:13;;;;;;;4.47;1.30;;;;;;;;;;5039490;28;20078;-86
2023/03/18 12:21:54;;;;;;;2.05;0.90;;;;;;;;;;5050983;28;20082;-86
2023/03/18 12:24:19;;;;;;;2.25;1.05;;;;;;;;;;5051999;28;20033;-86
2023/03/18 12:26:55;;;;;;;7.90;1.40;;;;;;;;;;5073857;28;20085;-86
2023/03/18 12:29:21;;;;;;;;;;;;;;;;;;5037913;28;20514;-84
2023/03/18 12:31:59;;;;;;;2.37;1.10;;;;;;;;;;5072289;28;19970;-87
2023/03/18 12:34:29;;;;;;;4.28;0.98;;;;;;;;;;5033645;28;20056;-85
2023/03/18 12:37:02;;;;;;;1.92;0.80;;;;;;;;;;5046551;28;20081;-85
2023/03/18 12:39:46;;;;;;;1.85;0.80;;;;;;;;;;5031252;28;20032;-86
2023/03/18 12:42:15;;;;;;;2.45;1.00;;;;;;;;;;5044343;28;20044;-84
2023/03/18 12:44:50;;;;;;;2.50;1.00;;;;;;;;;;5035645;28;20080;-87
2023/03/18 12:47:34;;;;;;;1.90;1.30;;;;;;;;;;5052632;28;20041;-89
2023/03/18 12:50:01;;;;;;;5.32;1.33;;;;;;;;;;5032037;28;20275;-84
2023/03/18 12:52:42;;;;;;;2.20;0.98;;;;;;;;;;5020655;28;20349;-85
2023/03/18 12:55:09;;;;;;;3.13;1.00;;;;;;;;;;5032480;28;20052;-84
2023/03/18 12:57:43;;;;;;;2.35;1.00;;;;;;;;;;5026017;28;20052;-85
2023/03/18 13:00:12;;;;;;;2.00;1.00;;;;;;;;;;5035041;28;20037;-85
2023/03/18 13:02:38;;;;;;;4.65;1.00;;;;;;;;;;5035686;28;20028;-85
2023/03/18 13:05:05;;;;;;;4.53;1.10;;;;;;;;;;5018371;28;20036;-84
2023/03/18 13:07:38;;;;;;;2.08;0.98;;;;;;;;;;5035940;28;20024;-84
2023/03/18 13:10:20;;;;;;;2.25;1.02;;;;;;;;;;5035547;28;20047;-84
2023/03/18 13:12:46;;;;;;;2.38;1.10;;;;;;;;;;5053254;28;20025;-84
2023/03/18 13:15:29;;;;;;;2.30;1.13;;;;;;;;;;5037426;28;20035;-83
2023/03/18 13:17:56;;;;;;;2.15;1.23;;;;;;;;;;5032537;28;20028;-82
2023/03/18 13:20:22;;;;;;;3.63;1.60;;;;;;;;;;5035242;28;20024;-84
2023/03/18 13:22:50;;;;;;;2.88;1.05;;;;;;;;;;5018901;28;20077;-84
2023/03/18 13:25:26;;;;;;;2.40;1.20;;;;;;;;;;5052565;28;20519;-83
2023/03/18 13:28:11;;;;;;;1.73;1.00;;;;;;;;;;5034574;28;20087;-83
2023/03/18 13:30:43;;;;;;;2.42;1.00;;;;;;;;;;5034462;28;20037;-83
2023/03/18 13:33:09;;;;;;;1.83;1.10;;;;;;;;;;5035350;28;20024;-83
2023/03/18 13:35:51;;;;;;;3.47;1.20;;;;;;;;;;5034484;28;20036;-83
2023/03/18 13:38:22;;;;;;;1.70;1.00;;;;;;;;;;5052533;28;20037;-83
2023/03/18 13:41:07;;;;;;;4.43;1.30;;;;;;;;;;5053685;28;20032;-83
2023/03/18 13:43:32;;;;;;;2.40;1.10;;;;;;;;;;5038271;28;20132;-83
2023/03/18 13:45:58;;;;;;;2.35;1.10;;;;;;;;;;5038485;28;20108;-83
2023/03/18 13:48:32;;;;;;;2.95;1.13;;;;;;;;;;5022398;28;20033;-83
2023/03/18 13:50:58;;;;;;;2.13;1.20;;;;;;;;;;5056308;28;20059;-83
2023/03/18 13:53:26;;;;;;;1.90;0.90;;;;;;;;;;5021974;28;20053;-83
2023/03/18 13:55:53;;;;;;;2.03;1.00;;;;;;;;;;5042974;28;20230;-84
2023/03/18 13:58:29;;;;;;;2.90;1.00;;;;;;;;;;5038534;28;20033;-82
2023/03/18 14:00:54;;;;;;;2.63;1.30;;;;;;;;;;5036010;28;20124;-82
2023/03/18 14:03:28;;;;;;;2.35;1.00;;;;;;;;;;5053560;28;20087;-82
2023/03/18 14:06:03;;;;;;;1.48;0.90;;;;;;;;;;5017890;28;20033;-83
2023/03/18 14:08:38;;;;;;;2.13;1.00;;;;;;;;;;5055667;28;20048;-84
2023/03/18 14:11:29;;;;;;;2.08;1.02;;;;;;;;;;5055285;28;20032;-84
2023/03/18 14:14:02;;;;;;;2.55;1.10;;;;;;;;;;5050692;28;20546;-84
2023/03/18 14:16:47;;;;;;;4.65;1.80;;;;;;;;;;5034759;28;20033;-86
2023/03/18 14:19:16;;;;;;;4.15;1.40;;;;;;;;;;5049336;28;20052;-85
2023/03/18 14:21:47;;;;;;;3.83;1.30;;;;;;;;;;5051660;28;20029;-85
2023/03/18 14:24:16;;;;;;;2.05;1.00;;;;;;;;;;5037820;28;20037;-83
2023/03/18 14:26:45;;;;;;;1.50;1.00;;;;;;;;;;5055255;28;20044;-86
2023/03/18 14:29:15;;;;;;;3.50;1.30;;;;;;;;;;5053755;28;20037;-86
2023/03/18 14:31:41;;;;;;;2.88;1.08;;;;;;;;;;5034749;28;20036;-85
2023/03/18 14:34:16;;;;;;;3.67;1.20;;;;;;;;;;5051940;28;20029;-84
2023/03/18 14:36:51;;;;;;;10.25;1.60;;;;;;;;;;5054554;28;20415;-85
2023/03/18 14:39:33;;;;;;;5.13;1.48;;;;;;;;;;5055286;28;20029;-85
2023/03/18 14:42:00;;;;;;;2.00;1.00;;;;;;;;;;5037538;28;20407;-85
2023/03/18 14:44:41;;;;;;;3.28;1.50;;;;;;;;;;5034405;28;20033;-85
2023/03/18 14:47:15;;;;;;;2.60;1.10;;;;;;;;;;5051763;28;20025;-84
2023/03/18 14:49:50;;;;;;;3.90;1.30;;;;;;;;;;5054488;28;20468;-85
2023/03/18 14:52:18;;;;;;;3.88;1.70;;;;;;;;;;5053368;28;20048;-85
2023/03/18 14:54:44;;;;;;;8.32;4.57;;;;;;;;;;5056148;28;20373;-84
2023/03/18 14:57:10;;;;;;;4.30;1.90;;;;;;;;;;5024090;28;20482;-85